createdAt,value
2016-04-04T00:00:59.190Z,958.58
2016-04-04T00:01:59.192Z,958.61
2016-04-04T00:02:59.196Z,958.6
2016-04-04T00:03:59.182Z,958.59
2016-04-04T00:04:59.185Z,958.62
2016-04-04T00:05:59.203Z,958.62
2016-04-04T00:06:59.190Z,958.68
2016-04-04T00:07:59.193Z,958.67
2016-04-04T00:08:59.195Z,958.66
2016-04-04T00:09:59.214Z,958.66
2016-04-04T00:10:59.201Z,958.6
2016-04-04T00:11:59.189Z,958.63
2016-04-04T00:12:59.191Z,958.6
2016-04-04T00:13:59.194Z,958.6
2016-04-04T00:14:59.197Z,958.6
2016-04-04T00:15:59.200Z,958.55
2016-04-04T00:16:59.202Z,958.55
2016-04-04T00:17:59.204Z,958.53
2016-04-04T00:18:59.207Z,958.55
2016-04-04T00:19:59.210Z,958.58
2016-04-04T00:20:59.197Z,958.62
2016-04-04T00:21:59.200Z,958.61
2016-04-04T00:22:59.202Z,958.62
2016-04-04T00:23:59.205Z,958.66
2016-04-04T00:24:59.207Z,958.7
2016-04-04T00:25:59.210Z,958.68
2016-04-04T00:26:59.213Z,958.72
2016-04-04T00:27:59.200Z,958.7
2016-04-04T00:28:59.218Z,958.73
2016-04-04T00:29:59.205Z,958.76
2016-04-04T00:30:59.207Z,958.74
2016-04-04T00:31:59.210Z,958.73
2016-04-04T00:32:59.213Z,958.72
2016-04-04T00:33:59.216Z,958.72
2016-04-04T00:34:59.218Z,958.77
2016-04-04T00:35:59.206Z,958.7
2016-04-04T00:36:59.208Z,958.73
2016-04-04T00:37:59.211Z,958.73
2016-04-04T00:38:59.215Z,958.73
2016-04-04T00:39:59.216Z,958.73
2016-04-04T00:40:59.220Z,958.71
2016-04-04T00:41:59.222Z,958.73
2016-04-04T00:42:59.224Z,958.71
2016-04-04T00:43:59.211Z,958.72
2016-04-04T00:44:59.215Z,958.68
2016-04-04T00:45:59.217Z,958.71
2016-04-04T00:46:59.220Z,958.69
2016-04-04T00:47:59.222Z,958.73
2016-04-04T00:48:59.225Z,958.72
2016-04-04T00:49:59.227Z,958.72
2016-04-04T00:50:59.246Z,958.74
2016-04-04T00:51:59.218Z,958.71
2016-04-04T00:52:59.221Z,958.74
2016-04-04T00:53:59.223Z,958.75
2016-04-04T00:54:59.226Z,958.75
2016-04-04T00:55:59.229Z,958.82
2016-04-04T00:56:59.232Z,958.78
2016-04-04T00:57:59.218Z,958.81
2016-04-04T00:58:59.237Z,958.79
2016-04-04T00:59:59.223Z,958.83
2016-04-04T01:00:59.226Z,958.81
2016-04-04T01:01:59.229Z,958.88
2016-04-04T01:02:59.232Z,958.85
2016-04-04T01:03:59.235Z,958.84
2016-04-04T01:04:59.221Z,958.84
2016-04-04T01:05:59.224Z,958.86
2016-04-04T01:06:59.227Z,958.88
2016-04-04T01:07:59.230Z,958.88
2016-04-04T01:08:59.232Z,958.9
2016-04-04T01:09:59.235Z,958.88
2016-04-04T01:10:59.238Z,958.88
2016-04-04T01:11:59.240Z,958.84
2016-04-04T01:12:59.228Z,958.83
2016-04-04T01:13:59.230Z,958.85
2016-04-04T01:14:59.233Z,958.83
2016-04-04T01:15:59.236Z,958.82
2016-04-04T01:16:59.238Z,958.84
2016-04-04T01:17:59.241Z,958.88
2016-04-04T01:18:59.244Z,958.8
2016-04-04T01:19:59.246Z,958.79
2016-04-04T01:20:59.249Z,958.79
2016-04-04T01:21:59.236Z,958.79
2016-04-04T01:22:59.239Z,958.81
2016-04-04T01:23:59.242Z,958.8
2016-04-04T01:24:59.244Z,958.78
2016-04-04T01:25:59.247Z,958.79
2016-04-04T01:26:59.249Z,958.82
2016-04-04T01:27:59.252Z,958.78
2016-04-04T01:28:59.238Z,958.79
2016-04-04T01:29:59.241Z,958.81
2016-04-04T01:30:59.244Z,958.77
2016-04-04T01:31:59.247Z,958.75
2016-04-04T01:32:59.250Z,958.79
2016-04-04T01:33:59.252Z,958.75
2016-04-04T01:34:59.255Z,958.74
2016-04-04T01:35:59.243Z,958.75
2016-04-04T01:36:59.246Z,958.71
2016-04-04T01:37:59.248Z,958.73
2016-04-04T01:38:59.251Z,958.69
2016-04-04T01:39:59.254Z,958.65
2016-04-04T01:40:59.256Z,958.67
2016-04-04T01:41:59.243Z,958.66
2016-04-04T01:42:59.245Z,958.63
2016-04-04T01:43:59.248Z,958.63
2016-04-04T01:44:59.251Z,958.66
2016-04-04T01:45:59.253Z,958.65
2016-04-04T01:46:59.256Z,958.67
2016-04-04T01:47:59.258Z,958.69
2016-04-04T01:48:59.261Z,958.71
2016-04-04T01:49:59.249Z,958.73
2016-04-04T01:50:59.251Z,958.72
2016-04-04T01:51:59.254Z,958.76
2016-04-04T01:52:59.257Z,958.75
2016-04-04T01:53:59.259Z,958.76
2016-04-04T01:54:59.262Z,958.74
2016-04-04T01:55:59.265Z,958.76
2016-04-04T01:56:59.249Z,958.75
2016-04-04T01:57:59.270Z,958.76
2016-04-04T01:58:59.254Z,958.75
2016-04-04T01:59:59.257Z,958.76
2016-04-04T02:00:59.265Z,958.76
2016-04-04T02:01:59.268Z,958.73
2016-04-04T02:02:59.255Z,958.75
2016-04-04T02:03:59.257Z,958.78
2016-04-04T02:04:59.260Z,958.77
2016-04-04T02:05:59.278Z,958.78
2016-04-04T02:06:59.265Z,958.75
2016-04-04T02:07:59.268Z,958.75
2016-04-04T02:08:59.270Z,958.72
2016-04-04T02:09:59.258Z,958.75
2016-04-04T02:10:59.261Z,958.75
2016-04-04T02:11:59.264Z,958.71
2016-04-04T02:12:59.266Z,958.74
2016-04-04T02:13:59.269Z,958.74
2016-04-04T02:14:59.272Z,958.76
2016-04-04T02:15:59.275Z,958.76
2016-04-04T02:16:59.261Z,958.77
2016-04-04T02:17:59.264Z,958.77
2016-04-04T02:18:59.266Z,958.75
2016-04-04T02:19:59.269Z,958.76
2016-04-04T02:20:59.272Z,958.8
2016-04-04T02:21:59.275Z,958.8
2016-04-04T02:22:59.262Z,958.81
2016-04-04T02:23:59.264Z,958.84
2016-04-04T02:24:59.267Z,958.81
2016-04-04T02:25:59.269Z,958.85
2016-04-04T02:26:59.272Z,958.86
2016-04-04T02:27:59.275Z,958.79
2016-04-04T02:28:59.294Z,958.82
2016-04-04T02:29:59.280Z,958.83
2016-04-04T02:30:59.283Z,958.84
2016-04-04T02:31:59.271Z,958.82
2016-04-04T02:32:59.273Z,958.81
2016-04-04T02:33:59.276Z,958.84
2016-04-04T02:34:59.279Z,958.8
2016-04-04T02:35:59.281Z,958.85
2016-04-04T02:36:59.284Z,958.83
2016-04-04T02:37:59.271Z,958.81
2016-04-04T02:38:59.289Z,958.82
2016-04-04T02:39:59.276Z,958.86
2016-04-04T02:40:59.279Z,958.8
2016-04-04T02:41:59.281Z,958.82
2016-04-04T02:42:59.284Z,958.81
2016-04-04T02:43:59.287Z,958.73
2016-04-04T02:44:59.290Z,958.75
2016-04-04T02:45:59.276Z,958.74
2016-04-04T02:46:59.279Z,958.74
2016-04-04T02:47:59.282Z,958.73
2016-04-04T02:48:59.284Z,958.76
2016-04-04T02:49:59.287Z,958.73
2016-04-04T02:50:59.289Z,958.77
2016-04-04T02:51:59.277Z,958.76
2016-04-04T02:52:59.295Z,958.79
2016-04-04T02:53:59.282Z,958.75
2016-04-04T02:54:59.285Z,958.77
2016-04-04T02:55:59.288Z,958.78
2016-04-04T02:56:59.290Z,958.75
2016-04-04T02:57:59.294Z,958.75
2016-04-04T02:58:59.296Z,958.73
2016-04-04T02:59:59.283Z,958.72
2016-04-04T03:00:59.285Z,958.73
2016-04-04T03:01:59.289Z,958.71
2016-04-04T03:02:59.291Z,958.73
2016-04-04T03:03:59.293Z,958.74
2016-04-04T03:04:59.297Z,958.71
2016-04-04T03:05:59.299Z,958.71
2016-04-04T03:06:59.287Z,958.71
2016-04-04T03:07:59.297Z,958.75
2016-04-04T03:08:59.300Z,958.77
2016-04-04T03:09:59.303Z,958.75
2016-04-04T03:10:59.290Z,958.79
2016-04-04T03:11:59.293Z,958.8
2016-04-04T03:12:59.296Z,958.8
2016-04-04T03:13:59.298Z,958.81
2016-04-04T03:14:59.301Z,958.76
2016-04-04T03:15:59.304Z,958.82
2016-04-04T03:16:59.290Z,958.82
2016-04-04T03:17:59.293Z,958.78
2016-04-04T03:18:59.296Z,958.76
2016-04-04T03:19:59.299Z,958.78
2016-04-04T03:20:59.301Z,958.79
2016-04-04T03:21:59.304Z,958.82
2016-04-04T03:22:59.307Z,958.82
2016-04-04T03:23:59.309Z,958.8
2016-04-04T03:24:59.297Z,958.83
2016-04-04T03:25:59.300Z,958.87
2016-04-04T03:26:59.302Z,958.87
2016-04-04T03:27:59.305Z,958.85
2016-04-04T03:28:59.308Z,958.85
2016-04-04T03:29:59.310Z,958.88
2016-04-04T03:30:59.297Z,958.9
2016-04-04T03:31:59.300Z,958.9
2016-04-04T03:32:59.302Z,958.85
2016-04-04T03:33:59.305Z,958.83
2016-04-04T03:34:59.308Z,958.83
2016-04-04T03:35:59.311Z,958.81
2016-04-04T03:36:59.313Z,958.79
2016-04-04T03:37:59.316Z,958.82
2016-04-04T03:38:59.303Z,958.83
2016-04-04T03:39:59.306Z,958.84
2016-04-04T03:40:59.308Z,958.88
2016-04-04T03:41:59.310Z,958.84
2016-04-04T03:42:59.314Z,958.85
2016-04-04T03:43:59.316Z,958.79
2016-04-04T03:44:59.318Z,958.8
2016-04-04T03:45:59.322Z,958.84
2016-04-04T03:46:59.310Z,958.81
2016-04-04T03:47:59.327Z,958.86
2016-04-04T03:48:59.314Z,958.85
2016-04-04T03:49:59.318Z,958.85
2016-04-04T03:50:59.320Z,958.86
2016-04-04T03:51:59.322Z,958.86
2016-04-04T03:52:59.309Z,958.88
2016-04-04T03:53:59.328Z,958.87
2016-04-04T03:54:59.315Z,958.86
2016-04-04T03:55:59.317Z,958.86
2016-04-04T03:56:59.320Z,958.87
2016-04-04T03:57:59.323Z,958.85
2016-04-04T03:58:59.326Z,958.89
2016-04-04T03:59:59.312Z,958.9
2016-04-04T04:00:59.315Z,958.9
2016-04-04T04:01:59.318Z,958.88
2016-04-04T04:02:59.320Z,958.88
2016-04-04T04:03:59.323Z,958.88
2016-04-04T04:04:59.326Z,958.87
2016-04-04T04:05:59.329Z,958.86
2016-04-04T04:06:59.317Z,958.86
2016-04-04T04:07:59.320Z,958.87
2016-04-04T04:08:59.384Z,958.86
2016-04-04T04:09:59.340Z,958.91
2016-04-04T04:10:59.328Z,958.92
2016-04-04T04:11:59.330Z,958.88
2016-04-04T04:12:59.333Z,958.94
2016-04-04T04:13:59.320Z,958.89
2016-04-04T04:14:59.323Z,958.9
2016-04-04T04:15:59.325Z,958.9
2016-04-04T04:16:59.328Z,958.91
2016-04-04T04:17:59.331Z,958.93
2016-04-04T04:18:59.333Z,958.93
2016-04-04T04:19:59.336Z,958.94
2016-04-04T04:20:59.338Z,959
2016-04-04T04:21:59.327Z,958.96
2016-04-04T04:22:59.329Z,958.98
2016-04-04T04:23:59.331Z,958.98
2016-04-04T04:24:59.335Z,959.01
2016-04-04T04:25:59.337Z,959.07
2016-04-04T04:26:59.340Z,959.05
2016-04-04T04:27:59.326Z,959.04
2016-04-04T04:28:59.330Z,959.07
2016-04-04T04:29:59.332Z,959.08
2016-04-04T04:30:59.334Z,959.06
2016-04-04T04:31:59.337Z,959.11
2016-04-04T04:32:59.339Z,959.08
2016-04-04T04:33:59.327Z,959.07
2016-04-04T04:34:59.329Z,959.07
2016-04-04T04:35:59.332Z,959.09
2016-04-04T04:36:59.351Z,959.09
2016-04-04T04:37:59.337Z,959.12
2016-04-04T04:38:59.340Z,959.14
2016-04-04T04:39:59.342Z,959.13
2016-04-04T04:40:59.346Z,959.17
2016-04-04T04:41:59.333Z,959.18
2016-04-04T04:42:59.336Z,959.17
2016-04-04T04:43:59.338Z,959.1
2016-04-04T04:44:59.341Z,959.15
2016-04-04T04:45:59.344Z,959.11
2016-04-04T04:46:59.346Z,959.14
2016-04-04T04:47:59.333Z,959.13
2016-04-04T04:48:59.336Z,959.16
2016-04-04T04:49:59.339Z,959.15
2016-04-04T04:50:59.341Z,959.16
2016-04-04T04:51:59.344Z,959.16
2016-04-04T04:52:59.347Z,959.2
2016-04-04T04:53:59.333Z,959.19
2016-04-04T04:54:59.336Z,959.16
2016-04-04T04:55:59.338Z,959.19
2016-04-04T04:56:59.341Z,959.23
2016-04-04T04:57:59.344Z,959.22
2016-04-04T04:58:59.347Z,959.24
2016-04-04T04:59:59.334Z,959.31
2016-04-04T05:00:59.352Z,959.28
2016-04-04T05:01:59.340Z,959.28
2016-04-04T05:02:59.342Z,959.31
2016-04-04T05:03:59.346Z,959.34
2016-04-04T05:04:59.348Z,959.36
2016-04-04T05:05:59.351Z,959.38
2016-04-04T05:06:59.353Z,959.35
2016-04-04T05:07:59.356Z,959.4
2016-04-04T05:08:59.343Z,959.36
2016-04-04T05:09:59.345Z,959.37
2016-04-04T05:10:59.348Z,959.36
2016-04-04T05:11:59.350Z,959.37
2016-04-04T05:12:59.354Z,959.37
2016-04-04T05:13:59.356Z,959.32
2016-04-04T05:14:59.343Z,959.33
2016-04-04T05:15:59.347Z,959.33
2016-04-04T05:16:59.350Z,959.35
2016-04-04T05:17:59.352Z,959.37
2016-04-04T05:18:59.354Z,959.36
2016-04-04T05:19:59.358Z,959.37
2016-04-04T05:20:59.344Z,959.38
2016-04-04T05:21:59.346Z,959.39
2016-04-04T05:22:59.349Z,959.36
2016-04-04T05:23:59.355Z,959.39
2016-04-04T05:24:59.355Z,959.43
2016-04-04T05:25:59.357Z,959.42
2016-04-04T05:26:59.411Z,959.41
2016-04-04T05:27:59.363Z,959.44
2016-04-04T05:28:59.349Z,959.46
2016-04-04T05:29:59.352Z,959.44
2016-04-04T05:30:59.355Z,959.44
2016-04-04T05:31:59.358Z,959.49
2016-04-04T05:32:59.360Z,959.53
2016-04-04T05:33:59.363Z,959.52
2016-04-04T05:34:59.412Z,959.5
2016-04-04T05:35:59.353Z,959.54
2016-04-04T05:36:59.356Z,959.57
2016-04-04T05:37:59.359Z,959.59
2016-04-04T05:38:59.362Z,959.62
2016-04-04T05:39:59.364Z,959.57
2016-04-04T05:40:59.367Z,959.55
2016-04-04T05:41:59.353Z,959.52
2016-04-04T05:42:59.356Z,959.54
2016-04-04T05:43:59.359Z,959.55
2016-04-04T05:44:59.361Z,959.6
2016-04-04T05:45:59.365Z,959.57
2016-04-04T05:46:59.367Z,959.6
2016-04-04T05:47:59.370Z,959.62
2016-04-04T05:48:59.373Z,959.6
2016-04-04T05:49:59.375Z,959.61
2016-04-04T05:50:59.362Z,959.63
2016-04-04T05:51:59.364Z,959.63
2016-04-04T05:52:59.367Z,959.67
2016-04-04T05:53:59.369Z,959.7
2016-04-04T05:54:59.373Z,959.68
2016-04-04T05:55:59.375Z,959.65
2016-04-04T05:56:59.362Z,959.63
2016-04-04T05:57:59.381Z,959.61
2016-04-04T05:58:59.369Z,959.63
2016-04-04T05:59:59.371Z,959.64
2016-04-04T06:00:59.388Z,959.61
2016-04-04T06:01:59.391Z,959.59
2016-04-04T06:02:59.379Z,959.59
2016-04-04T06:03:59.381Z,959.59
2016-04-04T06:04:59.384Z,959.58
2016-04-04T06:05:59.387Z,959.55
2016-04-04T06:06:59.390Z,959.54
2016-04-04T06:07:59.392Z,959.58
2016-04-04T06:08:59.395Z,959.6
2016-04-04T06:09:59.382Z,959.59
2016-04-04T06:10:59.400Z,959.61
2016-04-04T06:11:59.387Z,959.65
2016-04-04T06:12:59.390Z,959.66
2016-04-04T06:13:59.408Z,959.7
2016-04-04T06:14:59.395Z,959.72
2016-04-04T06:15:59.398Z,959.8
2016-04-04T06:16:59.416Z,959.77
2016-04-04T06:17:59.403Z,959.82
2016-04-04T06:18:59.422Z,959.76
2016-04-04T06:19:59.409Z,959.74
2016-04-04T06:20:59.411Z,959.75
2016-04-04T06:21:59.414Z,959.74
2016-04-04T06:22:59.433Z,959.72
2016-04-04T06:23:59.435Z,959.72
2016-04-04T06:24:59.422Z,959.73
2016-04-04T06:25:59.424Z,959.7
2016-04-04T06:26:59.427Z,959.7
2016-04-04T06:27:59.446Z,959.69
2016-04-04T06:28:59.448Z,959.68
2016-04-04T06:29:59.452Z,959.69
2016-04-04T06:30:59.454Z,959.65
2016-04-04T06:31:59.457Z,959.65
2016-04-04T06:32:59.459Z,959.69
2016-04-04T06:33:59.463Z,959.64
2016-04-04T06:34:59.465Z,959.63
2016-04-04T06:35:59.467Z,959.66
2016-04-04T06:36:59.471Z,959.65
2016-04-04T06:37:59.473Z,959.68
2016-04-04T06:38:59.491Z,959.72
2016-04-04T06:39:59.493Z,959.74
2016-04-04T06:40:59.496Z,959.72
2016-04-04T06:41:59.499Z,959.71
2016-04-04T06:42:59.501Z,959.69
2016-04-04T06:43:59.504Z,959.72
2016-04-04T06:44:59.539Z,959.7
2016-04-04T06:45:59.526Z,959.71
2016-04-04T06:46:59.528Z,959.71
2016-04-04T06:47:59.531Z,959.68
2016-04-04T06:48:59.534Z,959.67
2016-04-04T06:49:59.536Z,959.68
2016-04-04T06:50:59.555Z,959.67
2016-04-04T06:51:59.557Z,959.76
2016-04-04T06:52:59.560Z,959.77
2016-04-04T06:53:59.563Z,959.75
2016-04-04T06:54:59.581Z,959.79
2016-04-04T06:55:59.568Z,959.82
2016-04-04T06:56:59.586Z,959.83
2016-04-04T06:57:59.589Z,959.8
2016-04-04T06:58:59.591Z,959.84
2016-04-04T06:59:59.594Z,959.84
2016-04-04T07:00:59.602Z,959.83
2016-04-04T07:01:59.605Z,959.88
2016-04-04T07:02:59.623Z,959.87
2016-04-04T07:03:59.626Z,959.89
2016-04-04T07:04:59.628Z,959.9
2016-04-04T07:05:59.632Z,959.93
2016-04-04T07:06:59.649Z,959.95
2016-04-04T07:07:59.652Z,959.96
2016-04-04T07:08:59.654Z,959.93
2016-04-04T07:09:59.673Z,959.93
2016-04-04T07:10:59.675Z,959.89
2016-04-04T07:11:59.678Z,959.9
2016-04-04T07:12:59.681Z,959.82
2016-04-04T07:13:59.683Z,959.82
2016-04-04T07:14:59.703Z,959.75
2016-04-04T07:15:59.705Z,959.78
2016-04-04T07:16:59.707Z,959.81
2016-04-04T07:17:59.710Z,959.85
2016-04-04T07:18:59.728Z,959.87
2016-04-04T07:19:59.731Z,959.89
2016-04-04T07:20:59.733Z,959.94
2016-04-04T07:21:59.737Z,959.94
2016-04-04T07:22:59.755Z,959.89
2016-04-04T07:23:59.758Z,959.94
2016-04-04T07:24:59.760Z,959.95
2016-04-04T07:25:59.763Z,959.9
2016-04-04T07:26:59.766Z,959.88
2016-04-04T07:27:59.785Z,959.85
2016-04-04T07:28:59.787Z,959.86
2016-04-04T07:29:59.789Z,959.83
2016-04-04T07:30:59.793Z,959.83
2016-04-04T07:31:59.811Z,959.81
2016-04-04T07:32:59.813Z,959.82
2016-04-04T07:33:59.815Z,959.78
2016-04-04T07:34:59.819Z,959.77
2016-04-04T07:35:59.836Z,959.78
2016-04-04T07:36:59.840Z,959.76
2016-04-04T07:37:59.842Z,959.8
2016-04-04T07:38:59.860Z,959.8
2016-04-04T07:39:59.863Z,959.81
2016-04-04T07:40:59.866Z,959.83
2016-04-04T07:41:59.868Z,959.75
2016-04-04T07:42:59.886Z,959.75
2016-04-04T07:43:59.890Z,959.79
2016-04-04T07:44:59.893Z,959.8
2016-04-04T07:45:59.895Z,959.78
2016-04-04T07:46:59.913Z,959.79
2016-04-04T07:47:59.916Z,959.77
2016-04-04T07:48:59.919Z,959.79
2016-04-04T07:49:59.922Z,959.77
2016-04-04T07:50:59.924Z,959.73
2016-04-04T07:51:59.942Z,959.73
2016-04-04T07:52:59.944Z,959.82
2016-04-04T07:53:59.948Z,959.85
2016-04-04T07:54:59.966Z,959.81
2016-04-04T07:55:59.984Z,959.83
2016-04-04T07:56:59.972Z,959.91
2016-04-04T07:57:59.974Z,959.87
2016-04-04T07:58:59.977Z,959.85
2016-04-04T07:59:59.995Z,959.82
2016-04-04T08:00:59.998Z,959.85
2016-04-04T08:02:00.000Z,959.82
2016-04-04T08:03:00.004Z,959.81
2016-04-04T08:04:00.021Z,959.8
2016-04-04T08:05:00.024Z,959.82
2016-04-04T08:06:00.027Z,959.81
2016-04-04T08:07:00.030Z,959.82
2016-04-04T08:08:00.032Z,959.8
2016-04-04T08:09:00.050Z,959.79
2016-04-04T08:10:00.053Z,959.79
2016-04-04T08:11:00.056Z,959.83
2016-04-04T08:12:00.059Z,959.8
2016-04-04T08:13:00.076Z,959.82
2016-04-04T08:14:00.079Z,959.78
2016-04-04T08:15:00.081Z,959.85
2016-04-04T08:16:00.084Z,959.82
2016-04-04T08:17:00.103Z,959.81
2016-04-04T08:18:00.106Z,959.8
2016-04-04T08:19:00.109Z,959.8
2016-04-04T08:20:00.111Z,959.79
2016-04-04T08:21:00.114Z,959.82
2016-04-04T08:22:00.133Z,959.82
2016-04-04T08:23:00.135Z,959.85
2016-04-04T08:24:00.138Z,959.87
2016-04-04T08:25:00.156Z,959.87
2016-04-04T08:26:00.159Z,959.85
2016-04-04T08:27:00.161Z,959.82
2016-04-04T08:28:00.164Z,959.81
2016-04-04T08:29:00.182Z,959.83
2016-04-04T08:30:00.186Z,959.84
2016-04-04T08:31:00.188Z,959.84
2016-04-04T08:32:00.191Z,959.83
2016-04-04T08:33:00.193Z,959.79
2016-04-04T08:34:00.202Z,959.78
2016-04-04T08:35:00.193Z,959.74
2016-04-04T08:36:00.184Z,959.73
2016-04-04T08:37:00.175Z,959.71
2016-04-04T08:38:00.180Z,959.75
2016-04-04T08:39:00.178Z,959.8
2016-04-04T08:40:00.176Z,959.75
2016-04-04T08:41:00.174Z,959.72
2016-04-04T08:42:00.189Z,959.74
2016-04-04T08:43:00.187Z,959.75
2016-04-04T08:44:00.188Z,959.77
2016-04-04T08:45:00.189Z,959.79
2016-04-04T08:46:00.206Z,959.77
2016-04-04T08:47:00.207Z,959.77
2016-04-04T08:48:00.207Z,959.75
2016-04-04T08:49:00.210Z,959.77
2016-04-04T08:50:00.211Z,959.78
2016-04-04T08:51:00.213Z,959.76
2016-04-04T08:52:00.231Z,959.78
2016-04-04T08:53:00.233Z,959.78
2016-04-04T08:54:00.235Z,959.8
2016-04-04T08:55:00.238Z,959.73
2016-04-04T08:56:00.240Z,959.77
2016-04-04T08:57:00.258Z,959.76
2016-04-04T08:58:00.260Z,959.74
2016-04-04T08:59:00.263Z,959.74
2016-04-04T09:00:00.281Z,959.74
2016-04-04T09:01:00.269Z,959.72
2016-04-04T09:02:00.286Z,959.76
2016-04-04T09:03:00.288Z,959.74
2016-04-04T09:04:00.292Z,959.77
2016-04-04T09:05:00.294Z,959.77
2016-04-04T09:06:00.297Z,959.78
2016-04-04T09:07:00.315Z,959.78
2016-04-04T09:08:00.318Z,959.78
2016-04-04T09:09:00.321Z,959.78
2016-04-04T09:10:00.340Z,959.77
2016-04-04T09:11:00.326Z,959.74
2016-04-04T09:12:00.329Z,959.73
2016-04-04T09:13:00.331Z,959.72
2016-04-04T09:14:00.350Z,959.7
2016-04-04T09:15:00.353Z,959.71
2016-04-04T09:16:00.356Z,959.72
2016-04-04T09:17:00.358Z,959.72
2016-04-04T09:18:00.361Z,959.69
2016-04-04T09:19:00.379Z,959.71
2016-04-04T09:20:00.366Z,959.74
2016-04-04T09:21:00.369Z,959.69
2016-04-04T09:22:00.387Z,959.68
2016-04-04T09:23:00.389Z,959.72
2016-04-04T09:24:00.392Z,959.71
2016-04-04T09:25:00.411Z,959.66
2016-04-04T09:26:00.398Z,959.66
2016-04-04T09:27:00.416Z,959.63
2016-04-04T09:28:00.419Z,959.65
2016-04-04T09:29:00.422Z,959.66
2016-04-04T09:30:00.424Z,959.6
2016-04-04T09:31:00.427Z,959.62
2016-04-04T09:32:00.430Z,959.61
2016-04-04T09:33:00.432Z,959.58
2016-04-04T09:34:00.450Z,959.58
2016-04-04T09:35:00.453Z,959.58
2016-04-04T09:36:00.455Z,959.56
2016-04-04T09:37:00.458Z,959.57
2016-04-04T09:38:00.461Z,959.58
2016-04-04T09:39:00.464Z,959.53
2016-04-04T09:40:00.466Z,959.54
2016-04-04T09:41:00.469Z,959.5
2016-04-04T09:42:00.471Z,959.5
2016-04-04T09:43:00.474Z,959.48
2016-04-04T09:44:00.477Z,959.48
2016-04-04T09:45:00.496Z,959.46
2016-04-04T09:46:00.499Z,959.43
2016-04-04T09:47:00.501Z,959.4
2016-04-04T09:48:00.519Z,959.39
2016-04-04T09:49:00.523Z,959.4
2016-04-04T09:50:00.510Z,959.4
2016-04-04T09:51:00.512Z,959.4
2016-04-04T09:52:00.530Z,959.38
2016-04-04T09:53:00.533Z,959.39
2016-04-04T09:54:00.535Z,959.37
2016-04-04T09:55:00.538Z,959.35
2016-04-04T09:56:00.542Z,959.34
2016-04-04T09:57:00.544Z,959.31
2016-04-04T09:58:00.547Z,959.29
2016-04-04T09:59:00.549Z,959.29
2016-04-04T10:00:00.552Z,959.29
2016-04-04T10:01:00.555Z,959.25
2016-04-04T10:02:00.573Z,959.28
2016-04-04T10:03:00.576Z,959.27
2016-04-04T10:04:00.578Z,959.24
2016-04-04T10:05:00.596Z,959.28
2016-04-04T10:06:00.583Z,959.26
2016-04-04T10:07:00.586Z,959.24
2016-04-04T10:08:00.589Z,959.26
2016-04-04T10:09:00.591Z,959.26
2016-04-04T10:10:00.599Z,959.27
2016-04-04T10:11:00.601Z,959.24
2016-04-04T10:12:00.605Z,959.26
2016-04-04T10:13:00.607Z,959.23
2016-04-04T10:14:00.626Z,959.2
2016-04-04T10:15:00.612Z,959.15
2016-04-04T10:16:00.615Z,959.16
2016-04-04T10:17:00.618Z,959.15
2016-04-04T10:18:00.637Z,959.13
2016-04-04T10:19:00.639Z,959.18
2016-04-04T10:20:00.642Z,959.13
2016-04-04T10:21:00.644Z,959.12
2016-04-04T10:22:00.647Z,959.14
2016-04-04T10:23:00.650Z,959.17
2016-04-04T10:24:00.653Z,959.18
2016-04-04T10:25:00.655Z,959.11
2016-04-04T10:26:00.658Z,959.12
2016-04-04T10:27:00.661Z,959.12
2016-04-04T10:28:00.664Z,959.09
2016-04-04T10:29:00.666Z,959.11
2016-04-04T10:30:00.669Z,959.1
2016-04-04T10:31:00.686Z,959.09
2016-04-04T10:32:00.689Z,959.12
2016-04-04T10:33:00.691Z,959.11
2016-04-04T10:34:00.695Z,959.19
2016-04-04T10:35:00.698Z,959.11
2016-04-04T10:36:00.700Z,959.09
2016-04-04T10:37:00.702Z,959.17
2016-04-04T10:38:00.705Z,959.17
2016-04-04T10:39:00.707Z,959.13
2016-04-04T10:40:00.710Z,959.13
2016-04-04T10:41:00.714Z,959.13
2016-04-04T10:42:00.716Z,959.12
2016-04-04T10:43:00.719Z,959.07
2016-04-04T10:44:00.737Z,959.03
2016-04-04T10:45:00.740Z,959.01
2016-04-04T10:46:00.743Z,958.98
2016-04-04T10:47:00.746Z,958.97
2016-04-04T10:48:00.748Z,958.97
2016-04-04T10:49:00.751Z,958.93
2016-04-04T10:50:00.753Z,958.95
2016-04-04T10:51:00.756Z,958.91
2016-04-04T10:52:00.759Z,958.89
2016-04-04T10:53:00.762Z,958.85
2016-04-04T10:54:00.764Z,958.79
2016-04-04T10:55:00.783Z,958.79
2016-04-04T10:56:00.769Z,958.74
2016-04-04T10:57:00.772Z,958.74
2016-04-04T10:58:00.775Z,958.68
2016-04-04T10:59:00.778Z,958.65
2016-04-04T11:00:00.796Z,958.64
2016-04-04T11:01:00.799Z,958.63
2016-04-04T11:02:00.802Z,958.67
2016-04-04T11:03:00.805Z,958.64
2016-04-04T11:04:00.807Z,958.65
2016-04-04T11:05:00.810Z,958.62
2016-04-04T11:06:00.812Z,958.63
2016-04-04T11:07:00.816Z,958.55
2016-04-04T11:08:00.818Z,958.58
2016-04-04T11:09:00.830Z,958.57
2016-04-04T11:10:00.832Z,958.62
2016-04-04T11:11:00.835Z,958.6
2016-04-04T11:12:00.837Z,958.58
2016-04-04T11:13:00.840Z,958.62
2016-04-04T11:14:00.843Z,958.58
2016-04-04T11:15:00.846Z,958.58
2016-04-04T11:16:00.848Z,958.62
2016-04-04T11:17:00.914Z,958.58
2016-04-04T11:18:00.854Z,958.61
2016-04-04T11:19:00.857Z,958.62
2016-04-04T11:20:00.859Z,958.65
2016-04-04T11:21:00.862Z,958.62
2016-04-04T11:22:00.865Z,958.62
2016-04-04T11:23:00.868Z,958.66
2016-04-04T11:24:00.870Z,958.67
2016-04-04T11:25:00.889Z,958.65
2016-04-04T11:26:00.892Z,958.62
2016-04-04T11:27:00.894Z,958.63
2016-04-04T11:28:00.897Z,958.64
2016-04-04T11:29:00.900Z,958.58
2016-04-04T11:30:00.902Z,958.56
2016-04-04T11:31:00.905Z,958.53
2016-04-04T11:32:00.907Z,958.48
2016-04-04T11:33:00.910Z,958.47
2016-04-04T11:34:00.912Z,958.42
2016-04-04T11:35:00.915Z,958.35
2016-04-04T11:36:00.918Z,958.34
2016-04-04T11:37:00.920Z,958.37
2016-04-04T11:38:00.923Z,958.3
2016-04-04T11:39:00.932Z,958.29
2016-04-04T11:40:00.934Z,958.29
2016-04-04T11:41:00.937Z,958.29
2016-04-04T11:42:00.939Z,958.34
2016-04-04T11:43:00.942Z,958.34
2016-04-04T11:44:00.945Z,958.36
2016-04-04T11:45:00.947Z,958.36
2016-04-04T11:46:00.950Z,958.35
2016-04-04T11:47:00.952Z,958.32
2016-04-04T11:48:00.955Z,958.33
2016-04-04T11:49:00.974Z,958.33
2016-04-04T11:50:00.976Z,958.33
2016-04-04T11:51:00.979Z,958.23
2016-04-04T11:52:00.982Z,958.28
2016-04-04T11:53:00.985Z,958.27
2016-04-04T11:54:01.002Z,958.25
2016-04-04T11:55:00.991Z,958.22
2016-04-04T11:56:00.993Z,958.2
2016-04-04T11:57:00.996Z,958.19
2016-04-04T11:58:00.999Z,958.15
2016-04-04T11:59:01.001Z,958.17
2016-04-04T12:00:01.004Z,958.18
2016-04-04T12:01:01.021Z,958.19
2016-04-04T12:02:01.009Z,958.14
2016-04-04T12:03:01.012Z,958.15
2016-04-04T12:04:01.014Z,958.13
2016-04-04T12:05:01.017Z,958.11
2016-04-04T12:06:01.019Z,958.07
2016-04-04T12:07:01.022Z,958.12
2016-04-04T12:08:01.025Z,958.15
2016-04-04T12:09:01.042Z,958.12
2016-04-04T12:10:01.046Z,958.09
2016-04-04T12:11:01.033Z,958.08
2016-04-04T12:12:01.051Z,958.05
2016-04-04T12:13:01.054Z,958.08
2016-04-04T12:14:01.057Z,958.09
2016-04-04T12:15:01.059Z,958.07
2016-04-04T12:16:01.062Z,958.04
2016-04-04T12:17:01.064Z,958.04
2016-04-04T12:18:01.067Z,958.04
2016-04-04T12:19:01.070Z,958.03
2016-04-04T12:20:01.072Z,958.07
2016-04-04T12:21:01.076Z,958.03
2016-04-04T12:22:01.078Z,958.03
2016-04-04T12:23:01.081Z,957.98
2016-04-04T12:24:01.084Z,957.99
2016-04-04T12:25:01.086Z,957.96
2016-04-04T12:26:01.089Z,957.88
2016-04-04T12:27:01.092Z,957.86
2016-04-04T12:28:01.110Z,957.84
2016-04-04T12:29:01.097Z,957.81
2016-04-04T12:30:01.099Z,957.77
2016-04-04T12:31:01.102Z,957.79